Lower Kalskag, AK (99626)

4:10 AM AKDT on October 21, 2014 (GMT -0800)
Kalskag AP, Kalskag, AK | Change Station
CLOSE
Current Station
Airport
Location: Kalskag AP, Kalskag, AK,
Elevation: 56 ft
Nearby Weather Stations

Elev 56 ft 61.54 °N, 160.34 °W | Updated 14 minutes ago

Scattered Clouds
Scattered Clouds
25 °F
Feels Like 20 °F
N
5
Wind Variable Wind from ENE

Today
High -- | Low -- °F
--% Chance of Precip.
Yesterday
High -- | Low -- °F
Precip. -- in
9:41 AM 7:09 PM
Waning Crescent, 6% visible
Pressure 29.27 in
Visibility 10.0 miles
Clouds Scattered Clouds 4500 ft
Windchill 20 °F
Dew Point 23 °F
Humidity 91%
Rainfall 0.04 in
Snow Depth Not available.
UV 0 out of 12
Pollen Not available.
Air Quality Not available.
Flu Activity Sporadic
METAR PALG 211156Z AUTO 07004KT 10SM SCT045 M04/M05 A2926 RMK AO2 TSNO 51014 60004 70008 T10381050 11022 21066 SLP912 $

More Conditions Fewer Conditions

Pressure 29.27 in
Visibility 10.0 miles
Clouds Scattered Clouds 4500 ft
Windchill 20 °F
Dew Point 23 °F
Humidity 91%
Rainfall 0.04 in
Snow Depth Not available.
UV 0 out of 12
Pollen Not available.
Air Quality Not available.
Flu Activity Sporadic
METAR PALG 211156Z AUTO 07004KT 10SM SCT045 M04/M05 A2926 RMK AO2 TSNO 51014 60004 70008 T10381050 11022 21066 SLP912 $

More Conditions Fewer Conditions

10-Day Weather Forecast

Almanac

Astronomy

Oct. 21, 2014 Rise Set
Actual Time 9:41 AM AKDT 7:09 PM AKDT
Civil Twilight 8:55 AM AKDT 7:54 PM AKDT
Nautical Twilight 8:05 AM AKDT 8:45 PM AKDT
Astronomical Twilight 7:14 AM AKDT 9:35 PM AKDT
Moon 7:03 AM AKDT 6:36 PM AKDT
Length of Visible Light 10h 59m
Length of Day
9h 28m
Tomorrow will be 5m 41s shorter.
Waning Crescent, 6% of the Moon is Illuminated
Today
Waning Crescent
Oct 23
New
Oct 30
First Quarter
Nov 6
Full
Nov 14
Last Quarter

Today's Extremes

State Highs State Lows

Community

WunderPhotos

Upload Photos

1,763,643 photos uploaded!

Nearby

Snow Depth

Station Depth Elevation
Rocky Point 2 in 500 ft
Mcneil Canyon 1 in 1320 ft
Port Graham 0 in 300 ft
Point Mackenzie 1 in 200 ft
MF Bradley River 0 in 2300 ft

Earthquake Activity

City Distance Mag. Time & Date
No recent earthquake activity has been reported nearby.
Minimum magnitude displayed is 2.5.

Coastal Water Temperatures

Place Temperature
No Stations Reporting

Nearby Weather Stations